createdAt,value
2023-02-05T00:01:04.350Z,-4.18
2023-02-05T00:02:36.076Z,-4.20
2023-02-05T00:04:07.812Z,-4.23
2023-02-05T00:05:39.522Z,-4.25
2023-02-05T00:07:11.243Z,-4.28
2023-02-05T00:08:43.054Z,-4.30
2023-02-05T00:10:14.929Z,-4.34
2023-02-05T00:11:46.671Z,-4.36
2023-02-05T00:13:18.375Z,-4.39
2023-02-05T00:14:50.204Z,-4.43
2023-02-05T00:16:24.308Z,-4.46
2023-02-05T00:17:56.096Z,-4.48
2023-02-05T00:19:27.822Z,-4.51
2023-02-05T00:20:59.581Z,-4.54
2023-02-05T00:22:31.296Z,-4.56
2023-02-05T00:24:03.086Z,-4.58
2023-02-05T00:25:35.141Z,-4.60
2023-02-05T00:27:07.394Z,-4.61
2023-02-05T00:28:39.159Z,-4.63
2023-02-05T00:30:11.483Z,-4.64
2023-02-05T00:31:43.343Z,-4.67
2023-02-05T00:33:15.346Z,-4.70
2023-02-05T00:34:47.053Z,-4.71
2023-02-05T00:36:20.513Z,-4.73
2023-02-05T00:37:52.219Z,-4.75
2023-02-05T00:39:24.092Z,-4.77
2023-02-05T00:40:56.241Z,-4.78
2023-02-05T00:42:27.988Z,-4.81
2023-02-05T00:43:59.686Z,-4.82
2023-02-05T00:45:35.569Z,-4.83
2023-02-05T00:47:07.723Z,-4.85
2023-02-05T00:48:41.049Z,-4.87
2023-02-05T00:50:13.473Z,-4.87
2023-02-05T00:51:45.839Z,-4.87
2023-02-05T00:53:18.897Z,-4.88
2023-02-05T00:54:50.663Z,-4.90
2023-02-05T00:56:22.472Z,-4.89
2023-02-05T00:57:54.772Z,-4.91
2023-02-05T00:59:26.853Z,-4.91
2023-02-05T01:00:58.602Z,-4.93
2023-02-05T01:02:30.621Z,-4.94
2023-02-05T01:04:03.211Z,-4.95
2023-02-05T01:05:36.431Z,-4.96
2023-02-05T01:07:08.378Z,-4.99
2023-02-05T01:08:43.147Z,-5.01
2023-02-05T01:10:15.166Z,-5.02
2023-02-05T01:11:46.894Z,-5.06
2023-02-05T01:13:19.405Z,-5.09
2023-02-05T01:14:51.634Z,-5.13
2023-02-05T01:16:23.609Z,-5.14
2023-02-05T01:17:55.326Z,-5.16
2023-02-05T01:19:27.113Z,-5.17
2023-02-05T01:20:59.366Z,-5.18
2023-02-05T01:22:31.107Z,-5.19
2023-02-05T01:24:03.725Z,-5.18
2023-02-05T01:25:35.834Z,-5.22
2023-02-05T01:27:07.630Z,-5.24
2023-02-05T01:28:39.554Z,-5.26
2023-02-05T01:30:12.024Z,-5.28
2023-02-05T01:31:43.824Z,-5.30
2023-02-05T01:33:16.159Z,-5.32
2023-02-05T01:34:47.887Z,-5.35
2023-02-05T01:36:19.622Z,-5.36
2023-02-05T01:37:51.699Z,-5.39
2023-02-05T01:39:23.427Z,-5.41
2023-02-05T01:40:55.176Z,-5.43
2023-02-05T01:42:30.181Z,-5.46
2023-02-05T01:44:04.991Z,-5.49
2023-02-05T01:46:00.902Z,-5.52
2023-02-05T01:47:32.709Z,-5.52
2023-02-05T01:49:07.667Z,-5.54
2023-02-05T01:50:48.868Z,-5.57
2023-02-05T01:52:22.351Z,-5.57
2023-02-05T01:53:54.083Z,-5.60
2023-02-05T01:55:27.925Z,-5.63
2023-02-05T01:57:10.057Z,-5.65
2023-02-05T01:59:14.356Z,-5.69
2023-02-05T02:00:47.525Z,-5.69
2023-02-05T02:02:19.366Z,-5.70
2023-02-05T02:03:54.608Z,-5.73
2023-02-05T02:05:26.396Z,-5.74
2023-02-05T02:07:01.811Z,-5.75
2023-02-05T02:08:33.781Z,-5.77
2023-02-05T02:10:06.358Z,-5.79
2023-02-05T02:11:42.960Z,-5.81
2023-02-05T02:13:15.128Z,-5.82
2023-02-05T02:14:51.654Z,-5.82
2023-02-05T02:16:26.058Z,-5.84
2023-02-05T02:18:22.343Z,-5.82
2023-02-05T02:20:07.287Z,-5.83
2023-02-05T02:22:06.589Z,-5.85
2023-02-05T02:23:45.160Z,-5.83
2023-02-05T02:25:44.390Z,-5.88
2023-02-05T02:27:40.055Z,-5.86
2023-02-05T02:29:26.847Z,-5.87
2023-02-05T02:31:25.923Z,-5.90
2023-02-05T02:33:25.376Z,-5.91
2023-02-05T02:35:07.974Z,-5.92
2023-02-05T02:36:52.279Z,-5.93
2023-02-05T02:38:33.468Z,-5.93
2023-02-05T02:40:25.649Z,-5.97
2023-02-05T02:42:11.614Z,-5.99
2023-02-05T02:43:58.673Z,-6.00
2023-02-05T02:45:35.050Z,-6.01
2023-02-05T02:47:17.759Z,-6.03
2023-02-05T02:48:52.923Z,-6.07
2023-02-05T02:50:32.913Z,-6.08
2023-02-05T02:52:08.532Z,-6.09
2023-02-05T02:53:44.748Z,-6.12
2023-02-05T02:55:17.499Z,-6.12
2023-02-05T02:56:52.929Z,-6.15
2023-02-05T02:58:30.230Z,-6.16
2023-02-05T03:00:05.877Z,-6.18
2023-02-05T03:01:44.665Z,-6.19
2023-02-05T03:03:24.690Z,-6.21
2023-02-05T03:05:02.476Z,-6.24
2023-02-05T03:06:35.826Z,-6.24
2023-02-05T03:08:33.588Z,-6.29
2023-02-05T03:10:32.550Z,-6.30
2023-02-05T03:12:04.505Z,-6.30
2023-02-05T03:13:36.335Z,-6.32
2023-02-05T03:15:10.768Z,-6.35
2023-02-05T03:16:42.721Z,-6.36
2023-02-05T03:18:17.272Z,-6.36
2023-02-05T03:19:56.428Z,-6.40
2023-02-05T03:21:34.275Z,-6.40
2023-02-05T03:23:06.079Z,-6.41
2023-02-05T03:24:39.577Z,-6.42
2023-02-05T03:26:42.320Z,-6.46
2023-02-05T03:28:29.027Z,-6.42
2023-02-05T03:30:01.792Z,-6.42
2023-02-05T03:31:49.211Z,-6.45
2023-02-05T03:33:31.616Z,-6.43
2023-02-05T03:35:26.408Z,-6.44
2023-02-05T03:37:09.770Z,-6.40
2023-02-05T03:38:52.220Z,-6.40
2023-02-05T03:40:51.003Z,-6.43
2023-02-05T03:42:46.333Z,-6.44
2023-02-05T03:44:30.202Z,-6.46
2023-02-05T03:46:13.710Z,-6.46
2023-02-05T03:48:05.160Z,-6.49
2023-02-05T03:49:53.517Z,-6.53
2023-02-05T03:51:50.573Z,-6.53
2023-02-05T03:53:41.607Z,-6.52
2023-02-05T03:55:25.205Z,-6.56
2023-02-05T03:57:29.612Z,-6.56
2023-02-05T03:59:04.415Z,-6.58
2023-02-05T04:00:36.424Z,-6.57
2023-02-05T04:02:08.620Z,-6.60
2023-02-05T04:03:45.112Z,-6.62
2023-02-05T04:05:17.393Z,-6.64
2023-02-05T04:06:52.284Z,-6.65
2023-02-05T04:08:24.252Z,-6.67
2023-02-05T04:09:57.949Z,-6.69
2023-02-05T04:11:29.667Z,-6.72
2023-02-05T04:13:01.605Z,-6.74
2023-02-05T04:14:34.134Z,-6.76
2023-02-05T04:16:05.927Z,-6.77
2023-02-05T04:17:38.843Z,-6.78
2023-02-05T04:19:10.788Z,-6.80
2023-02-05T04:20:42.566Z,-6.82
2023-02-05T04:22:14.678Z,-6.80
2023-02-05T04:23:49.597Z,-6.82
2023-02-05T04:25:21.862Z,-6.82
2023-02-05T04:26:56.988Z,-6.81
2023-02-05T04:28:29.475Z,-6.80
2023-02-05T04:30:01.402Z,-6.81
2023-02-05T04:31:35.307Z,-6.82
2023-02-05T04:33:07.208Z,-6.81
2023-02-05T04:34:39.161Z,-6.81
2023-02-05T04:36:14.423Z,-6.82
2023-02-05T04:37:46.167Z,-6.83
2023-02-05T04:39:17.989Z,-6.81
2023-02-05T04:40:51.265Z,-6.82
2023-02-05T04:42:23.022Z,-6.83
2023-02-05T04:43:54.736Z,-6.83
2023-02-05T04:45:31.402Z,-6.83
2023-02-05T04:47:03.583Z,-6.83
2023-02-05T04:48:35.786Z,-6.83
2023-02-05T04:50:08.219Z,-6.83
2023-02-05T04:51:39.933Z,-6.83
2023-02-05T04:53:11.658Z,-6.84
2023-02-05T04:54:43.427Z,-6.83
2023-02-05T04:56:17.547Z,-6.83
2023-02-05T04:57:51.288Z,-6.83
2023-02-05T04:59:24.190Z,-6.83
2023-02-05T05:00:56.193Z,-6.82
2023-02-05T05:02:27.949Z,-6.82
2023-02-05T05:03:59.699Z,-6.81
2023-02-05T05:05:31.800Z,-6.78
2023-02-05T05:07:03.903Z,-6.76
2023-02-05T05:08:35.659Z,-6.74
2023-02-05T05:10:08.232Z,-6.72
2023-02-05T05:11:40.178Z,-6.69
2023-02-05T05:13:11.879Z,-6.67
2023-02-05T05:14:43.608Z,-6.62
2023-02-05T05:16:18.213Z,-6.59
2023-02-05T05:17:49.939Z,-6.54
2023-02-05T05:19:22.133Z,-6.48
2023-02-05T05:20:53.956Z,-6.43
2023-02-05T05:22:26.025Z,-6.38
2023-02-05T05:23:57.722Z,-6.35
2023-02-05T05:25:29.426Z,-6.30
2023-02-05T05:27:01.198Z,-6.24
2023-02-05T05:28:34.905Z,-6.19
2023-02-05T05:30:07.395Z,-6.14
2023-02-05T05:31:39.284Z,-6.09
2023-02-05T05:33:11.797Z,-6.04
2023-02-05T05:34:43.500Z,-6.00
2023-02-05T05:36:16.003Z,-5.95
2023-02-05T05:37:47.698Z,-5.90
2023-02-05T05:39:38.286Z,-5.85
2023-02-05T05:41:42.704Z,-5.82
2023-02-05T05:43:35.490Z,-5.77
2023-02-05T05:45:07.570Z,-5.74
2023-02-05T05:46:39.287Z,-5.69
2023-02-05T05:48:11.028Z,-5.67
2023-02-05T05:49:42.769Z,-5.64
2023-02-05T05:51:14.468Z,-5.62
2023-02-05T05:52:46.173Z,-5.60
2023-02-05T05:54:18.033Z,-5.56
2023-02-05T05:55:49.936Z,-5.54
2023-02-05T05:57:21.980Z,-5.52
2023-02-05T05:58:53.796Z,-5.52
2023-02-05T06:00:25.510Z,-5.51
2023-02-05T06:01:57.215Z,-5.51
2023-02-05T06:03:28.966Z,-5.51
2023-02-05T06:05:02.376Z,-5.51
2023-02-05T06:06:34.791Z,-5.50
2023-02-05T06:08:06.762Z,-5.52
2023-02-05T06:09:38.483Z,-5.53
2023-02-05T06:11:10.513Z,-5.56
2023-02-05T06:12:42.230Z,-5.56
2023-02-05T06:14:14.087Z,-5.59
2023-02-05T06:15:46.025Z,-5.62
2023-02-05T06:17:17.780Z,-5.62
2023-02-05T06:18:49.522Z,-5.64
2023-02-05T06:20:21.507Z,-5.67
2023-02-05T06:21:53.235Z,-5.69
2023-02-05T06:23:25.038Z,-5.72
2023-02-05T06:24:56.805Z,-5.75
2023-02-05T06:26:28.491Z,-5.78
2023-02-05T06:28:00.353Z,-5.80
2023-02-05T06:29:32.392Z,-5.83
2023-02-05T06:31:04.553Z,-5.84
2023-02-05T06:32:36.466Z,-5.87
2023-02-05T06:34:08.192Z,-5.89
2023-02-05T06:35:41.506Z,-5.92
2023-02-05T06:37:13.236Z,-5.93
2023-02-05T06:38:44.930Z,-5.97
2023-02-05T06:40:18.370Z,-5.97
2023-02-05T06:41:50.304Z,-5.98
2023-02-05T06:43:22.623Z,-5.99
2023-02-05T06:44:54.388Z,-5.99
2023-02-05T06:46:26.104Z,-6.00
2023-02-05T06:47:58.401Z,-6.01
2023-02-05T06:49:30.128Z,-6.01
2023-02-05T06:51:02.000Z,-6.01
2023-02-05T06:52:33.848Z,-6.01
2023-02-05T06:54:05.564Z,-5.99
2023-02-05T06:55:38.377Z,-5.99
2023-02-05T06:57:11.038Z,-5.93
2023-02-05T06:58:42.774Z,-5.90
2023-02-05T07:00:15.511Z,-5.87
2023-02-05T07:01:47.583Z,-5.84
2023-02-05T07:03:20.799Z,-5.79
2023-02-05T07:04:52.628Z,-5.74
2023-02-05T07:06:25.490Z,-5.67
2023-02-05T07:07:57.366Z,-5.62
2023-02-05T07:09:29.183Z,-5.55
2023-02-05T07:11:01.433Z,-5.51
2023-02-05T07:12:33.186Z,-5.42
2023-02-05T07:14:04.926Z,-5.37
2023-02-05T07:15:37.682Z,-5.29
2023-02-05T07:17:09.657Z,-5.22
2023-02-05T07:18:41.515Z,-5.11
2023-02-05T07:20:13.315Z,-5.05
2023-02-05T07:21:45.077Z,-4.96
2023-02-05T07:23:16.814Z,-4.88
2023-02-05T07:24:48.593Z,-4.81
2023-02-05T07:26:20.340Z,-4.75
2023-02-05T07:27:52.146Z,-4.65
2023-02-05T07:29:23.921Z,-4.59
2023-02-05T07:30:55.989Z,-4.50
2023-02-05T07:32:27.742Z,-4.43
2023-02-05T07:33:59.456Z,-4.38
2023-02-05T07:35:35.949Z,-4.32
2023-02-05T07:37:07.808Z,-4.23
2023-02-05T07:38:39.920Z,-4.17
2023-02-05T07:40:11.950Z,-4.09
2023-02-05T07:41:43.648Z,-4.03
2023-02-05T07:43:24.930Z,-3.95
2023-02-05T07:44:57.202Z,-3.87
2023-02-05T07:46:29.012Z,-3.80
2023-02-05T07:48:00.774Z,-3.73
2023-02-05T07:49:32.510Z,-3.68
2023-02-05T07:51:04.601Z,-3.60
2023-02-05T07:52:36.403Z,-3.55
2023-02-05T07:54:09.996Z,-3.52
2023-02-05T07:55:41.686Z,-3.47
2023-02-05T07:57:13.351Z,-3.44
2023-02-05T07:58:45.056Z,-3.40
2023-02-05T08:00:16.961Z,-3.37
2023-02-05T08:01:48.626Z,-3.31
2023-02-05T08:03:22.509Z,-3.27
2023-02-05T08:04:54.983Z,-3.23
2023-02-05T08:06:26.985Z,-3.18
2023-02-05T08:07:58.723Z,-3.13
2023-02-05T08:09:30.483Z,-3.08
2023-02-05T08:11:05.712Z,-3.08
2023-02-05T08:12:37.446Z,-3.02
2023-02-05T08:14:09.151Z,-2.97
2023-02-05T08:15:41.558Z,-2.92
2023-02-05T08:17:13.358Z,-2.90
2023-02-05T08:18:49.975Z,-2.87
2023-02-05T08:20:22.412Z,-2.86
2023-02-05T08:21:54.183Z,-2.83
2023-02-05T08:23:26.210Z,-2.81
2023-02-05T08:24:57.915Z,-2.78
2023-02-05T08:26:29.607Z,-2.75
2023-02-05T08:28:01.448Z,-2.73
2023-02-05T08:29:33.225Z,-2.69
2023-02-05T08:31:16.258Z,-2.69
2023-02-05T08:32:49.686Z,-2.64
2023-02-05T08:34:21.456Z,-2.64
2023-02-05T08:35:53.335Z,-2.61
2023-02-05T08:37:25.679Z,-2.57
2023-02-05T08:38:57.390Z,-2.56
2023-02-05T08:40:29.131Z,-2.53
2023-02-05T08:42:00.860Z,-2.51
2023-02-05T08:43:32.574Z,-2.46
2023-02-05T08:45:08.917Z,-2.45
2023-02-05T08:46:49.839Z,-2.42
2023-02-05T08:48:23.149Z,-2.42
2023-02-05T08:49:55.093Z,-2.35
2023-02-05T08:51:26.864Z,-2.32
2023-02-05T08:52:58.601Z,-2.26
2023-02-05T08:54:30.373Z,-2.25
2023-02-05T08:56:03.906Z,-2.22
2023-02-05T08:57:36.597Z,-2.20
2023-02-05T08:59:09.227Z,-2.15
2023-02-05T09:00:40.930Z,-2.13
2023-02-05T09:02:15.331Z,-2.15
2023-02-05T09:03:47.133Z,-2.14
2023-02-05T09:05:18.930Z,-2.08
2023-02-05T09:06:50.643Z,-2.07
2023-02-05T09:08:22.348Z,-2.01
2023-02-05T09:09:54.026Z,-2.00
2023-02-05T09:11:26.877Z,-1.99
2023-02-05T09:12:58.621Z,-1.97
2023-02-05T09:14:36.274Z,-1.98
2023-02-05T09:16:11.086Z,-1.94
2023-02-05T09:17:42.794Z,-1.94
2023-02-05T09:19:14.746Z,-1.96
2023-02-05T09:20:49.047Z,-1.97
2023-02-05T09:22:20.995Z,-1.97
2023-02-05T09:23:53.789Z,-1.95
2023-02-05T09:25:25.635Z,-1.95
2023-02-05T09:26:57.335Z,-1.93
2023-02-05T09:28:29.185Z,-1.90
2023-02-05T09:30:00.946Z,-1.89
2023-02-05T09:31:32.803Z,-1.84
2023-02-05T09:33:05.203Z,-1.80
2023-02-05T09:34:36.902Z,-1.75
2023-02-05T09:36:21.074Z,-1.69
2023-02-05T09:37:52.792Z,-1.61
2023-02-05T09:39:52.620Z,-1.56
2023-02-05T09:41:26.925Z,-1.50
2023-02-05T09:43:17.954Z,-1.41
2023-02-05T09:44:58.592Z,-1.37
2023-02-05T09:46:47.044Z,-1.31
2023-02-05T09:48:24.590Z,-1.21
2023-02-05T09:50:18.949Z,-1.22
2023-02-05T09:51:55.932Z,-1.15
2023-02-05T09:53:33.220Z,-1.11
2023-02-05T09:55:20.628Z,-1.02
2023-02-05T09:56:55.750Z,-0.91
2023-02-05T09:58:33.152Z,-0.84
2023-02-05T10:00:13.541Z,-0.76
2023-02-05T10:01:52.564Z,-0.75
2023-02-05T10:03:32.223Z,-0.67
2023-02-05T10:05:13.373Z,-0.60
2023-02-05T10:07:11.193Z,-0.56
2023-02-05T10:08:51.896Z,-0.46
2023-02-05T10:10:48.734Z,-0.44
2023-02-05T10:12:39.359Z,-0.40
2023-02-05T10:14:29.876Z,-0.28
2023-02-05T10:16:11.206Z,-0.21
2023-02-05T10:18:04.274Z,-0.15
2023-02-05T10:20:01.769Z,-0.11
2023-02-05T10:21:58.975Z,-0.02
2023-02-05T10:23:48.962Z,-0.02
2023-02-05T10:25:56.859Z,0.05
2023-02-05T10:27:46.895Z,0.11
2023-02-05T10:29:32.556Z,0.17
2023-02-05T10:31:27.773Z,0.20
2023-02-05T10:33:06.688Z,0.30
2023-02-05T10:34:44.341Z,0.36
2023-02-05T10:36:22.043Z,0.43
2023-02-05T10:37:57.657Z,0.50
2023-02-05T10:39:31.012Z,0.57
2023-02-05T10:41:25.467Z,0.59
2023-02-05T10:43:18.109Z,0.67
2023-02-05T10:44:59.839Z,0.70
2023-02-05T10:46:35.201Z,0.78
2023-02-05T10:48:37.936Z,0.81
2023-02-05T10:50:25.893Z,0.87
2023-02-05T10:51:57.767Z,0.92
2023-02-05T10:53:31.146Z,0.92
2023-02-05T10:55:02.941Z,0.96
2023-02-05T10:56:34.736Z,0.98
2023-02-05T10:58:39.005Z,0.95
2023-02-05T11:00:21.391Z,1.01
2023-02-05T11:01:56.624Z,1.07
2023-02-05T11:03:29.322Z,1.14
2023-02-05T11:05:17.993Z,1.17
2023-02-05T11:06:53.034Z,1.22
2023-02-05T11:08:44.055Z,1.19
2023-02-05T11:10:25.837Z,1.26
2023-02-05T11:12:04.504Z,1.29
2023-02-05T11:13:41.960Z,1.32
2023-02-05T11:15:26.570Z,1.32
2023-02-05T11:16:59.976Z,1.46
2023-02-05T11:18:57.641Z,1.48
2023-02-05T11:20:39.154Z,1.49
2023-02-05T11:22:24.633Z,1.48
2023-02-05T11:23:58.016Z,1.60
2023-02-05T11:25:31.433Z,1.60
2023-02-05T11:27:15.542Z,1.64
2023-02-05T11:28:47.869Z,1.70
2023-02-05T11:32:33.946Z,1.75
2023-02-05T11:34:08.574Z,1.77
2023-02-05T11:35:40.349Z,1.79
2023-02-05T11:37:17.555Z,1.83
2023-02-05T11:38:54.430Z,1.86
2023-02-05T11:40:31.072Z,1.87
2023-02-05T11:42:24.854Z,1.84
2023-02-05T11:44:00.179Z,1.91
2023-02-05T11:45:35.334Z,1.93
2023-02-05T11:47:09.248Z,1.95
2023-02-05T11:48:47.886Z,1.97
2023-02-05T11:50:28.195Z,1.95
2023-02-05T11:52:02.454Z,2.00
2023-02-05T11:53:35.871Z,1.94
2023-02-05T11:55:22.837Z,1.96
2023-02-05T11:57:23.416Z,1.97
2023-02-05T11:59:22.330Z,1.95
2023-02-05T12:01:01.201Z,2.02
2023-02-05T12:02:36.934Z,2.05
2023-02-05T12:04:11.354Z,2.02
2023-02-05T12:06:06.216Z,2.03
2023-02-05T12:08:24.128Z,2.08
2023-02-05T12:09:59.566Z,2.15
2023-02-05T12:11:56.493Z,2.17
2023-02-05T12:13:45.724Z,2.17
2023-02-05T12:15:37.531Z,2.22
2023-02-05T12:17:18.808Z,2.28
2023-02-05T12:19:22.856Z,2.33
2023-02-05T12:21:25.395Z,2.30
2023-02-05T12:23:06.367Z,2.34
2023-02-05T12:24:53.213Z,2.36
2023-02-05T12:26:37.244Z,2.40
2023-02-05T12:28:36.933Z,2.43
2023-02-05T12:30:42.503Z,2.42
2023-02-05T12:32:38.803Z,2.36
2023-02-05T12:34:43.338Z,2.35
2023-02-05T12:36:41.697Z,2.38
2023-02-05T12:38:48.350Z,2.37
2023-02-05T12:40:35.253Z,2.40
2023-02-05T12:42:24.380Z,2.41
2023-02-05T12:44:23.860Z,2.38
2023-02-05T12:46:21.620Z,2.37
2023-02-05T12:48:18.242Z,2.31
2023-02-05T12:50:05.479Z,2.34
2023-02-05T12:51:39.899Z,2.35
2023-02-05T12:53:54.619Z,2.22
2023-02-05T12:55:57.107Z,2.20
2023-02-05T12:57:42.017Z,2.22
2023-02-05T12:59:26.067Z,2.21
2023-02-05T13:01:03.269Z,2.22
2023-02-05T13:02:53.018Z,2.19
2023-02-05T13:04:32.364Z,2.21
2023-02-05T13:06:08.799Z,2.24
2023-02-05T13:07:45.540Z,2.27
2023-02-05T13:09:24.483Z,2.22
2023-02-05T13:11:11.055Z,2.25
2023-02-05T13:12:48.679Z,2.31
2023-02-05T13:14:30.221Z,2.29
2023-02-05T13:16:10.043Z,2.32
2023-02-05T13:17:57.976Z,2.29
2023-02-05T13:19:39.460Z,2.32
2023-02-05T13:21:35.214Z,2.30
2023-02-05T13:23:28.066Z,2.27
2023-02-05T13:25:30.035Z,2.29
2023-02-05T13:27:45.131Z,2.26
2023-02-05T13:29:19.741Z,2.26
2023-02-05T13:30:55.989Z,2.26
2023-02-05T13:32:31.322Z,2.25
2023-02-05T13:34:05.933Z,2.23
2023-02-05T13:35:51.164Z,2.21
2023-02-05T13:37:42.369Z,2.16
2023-02-05T13:39:47.433Z,2.11
2023-02-05T13:41:33.310Z,2.11
2023-02-05T13:43:22.852Z,2.11
2023-02-05T13:44:57.908Z,2.09
2023-02-05T13:46:32.341Z,2.10
2023-02-05T13:48:34.181Z,2.05
2023-02-05T13:50:23.161Z,2.03
2023-02-05T13:52:23.526Z,2.04
2023-02-05T13:54:01.955Z,2.06
2023-02-05T13:55:46.003Z,2.02
2023-02-05T13:57:53.656Z,1.96
2023-02-05T13:59:37.087Z,1.93
2023-02-05T14:01:42.214Z,1.87
2023-02-05T14:03:30.750Z,1.89
2023-02-05T14:05:03.509Z,1.90
2023-02-05T14:06:38.072Z,1.86
2023-02-05T14:08:22.896Z,1.81
2023-02-05T14:09:59.773Z,1.81
2023-02-05T14:11:55.839Z,1.74
2023-02-05T14:13:34.648Z,1.76
2023-02-05T14:15:25.078Z,1.71
2023-02-05T14:16:59.044Z,1.77
2023-02-05T14:18:40.040Z,1.73
2023-02-05T14:20:33.110Z,1.71
2023-02-05T14:22:10.505Z,1.76
2023-02-05T14:23:48.472Z,1.75
2023-02-05T14:25:36.056Z,1.71
2023-02-05T14:27:40.215Z,1.70
2023-02-05T14:29:44.256Z,1.69
2023-02-05T14:31:52.691Z,1.69
2023-02-05T14:33:31.837Z,1.66
2023-02-05T14:35:48.197Z,1.61
2023-02-05T14:37:40.506Z,1.64
2023-02-05T14:39:33.088Z,1.60
2023-02-05T14:41:15.094Z,1.58
2023-02-05T14:42:46.974Z,1.60
2023-02-05T14:44:24.120Z,1.53
2023-02-05T14:45:56.352Z,1.51
2023-02-05T14:47:33.701Z,1.46
2023-02-05T14:49:20.182Z,1.44
2023-02-05T14:51:02.466Z,1.38
2023-02-05T14:52:47.707Z,1.32
2023-02-05T14:54:23.920Z,1.30
2023-02-05T14:55:57.094Z,1.27
2023-02-05T14:57:40.927Z,1.22
2023-02-05T14:59:23.052Z,1.17
2023-02-05T15:01:31.649Z,1.13
2023-02-05T15:03:06.594Z,1.11
2023-02-05T15:04:38.272Z,1.07
2023-02-05T15:06:16.055Z,1.00
2023-02-05T15:07:50.710Z,0.96
2023-02-05T15:09:40.422Z,0.92
2023-02-05T15:11:18.395Z,0.86
2023-02-05T15:13:09.332Z,0.80
2023-02-05T15:14:54.740Z,0.76
2023-02-05T15:16:26.433Z,0.75
2023-02-05T15:18:23.713Z,0.69
2023-02-05T15:20:00.367Z,0.63
2023-02-05T15:21:39.162Z,0.58
2023-02-05T15:23:16.668Z,0.55
2023-02-05T15:24:49.320Z,0.50
2023-02-05T15:26:44.176Z,0.46
2023-02-05T15:28:27.212Z,0.40
2023-02-05T15:30:07.082Z,0.35
2023-02-05T15:31:49.096Z,0.30
2023-02-05T15:33:36.514Z,0.23
2023-02-05T15:35:16.597Z,0.21
2023-02-05T15:37:04.021Z,0.14
2023-02-05T15:38:46.600Z,0.09
2023-02-05T15:40:38.579Z,0.02
2023-02-05T15:42:16.060Z,0.02
2023-02-05T15:43:59.651Z,-0.05
2023-02-05T15:45:37.092Z,-0.09
2023-02-05T15:47:17.415Z,-0.13
2023-02-05T15:48:49.193Z,-0.16
2023-02-05T15:50:21.098Z,-0.21
2023-02-05T15:51:52.965Z,-0.25
2023-02-05T15:53:36.551Z,-0.32
2023-02-05T15:55:17.460Z,-0.38
2023-02-05T15:56:54.057Z,-0.41
2023-02-05T15:58:26.955Z,-0.46
2023-02-05T16:00:01.413Z,-0.51
2023-02-05T16:01:46.756Z,-0.57
2023-02-05T16:03:31.991Z,-0.64
2023-02-05T16:05:17.612Z,-0.71
2023-02-05T16:06:49.527Z,-0.73
2023-02-05T16:08:23.536Z,-0.80
2023-02-05T16:09:58.486Z,-0.86
2023-02-05T16:11:35.124Z,-0.91
2023-02-05T16:13:16.358Z,-0.96
2023-02-05T16:15:01.848Z,-1.04
2023-02-05T16:16:37.032Z,-1.07
2023-02-05T16:18:19.927Z,-1.14
2023-02-05T16:19:59.996Z,-1.17
2023-02-05T16:21:36.124Z,-1.22
2023-02-05T16:23:24.013Z,-1.30
2023-02-05T16:25:01.488Z,-1.31
2023-02-05T16:26:43.132Z,-1.38
2023-02-05T16:28:23.789Z,-1.44
2023-02-05T16:30:02.101Z,-1.49
2023-02-05T16:31:37.531Z,-1.54
2023-02-05T16:33:26.874Z,-1.60
2023-02-05T16:35:01.331Z,-1.62
2023-02-05T16:36:37.875Z,-1.68
2023-02-05T16:38:17.616Z,-1.75
2023-02-05T16:39:55.498Z,-1.79
2023-02-05T16:41:31.305Z,-1.83
2023-02-05T16:43:39.327Z,-1.91
2023-02-05T16:45:18.947Z,-1.94
2023-02-05T16:47:24.817Z,-2.02
2023-02-05T16:49:01.942Z,-2.07
2023-02-05T16:50:39.342Z,-2.08
2023-02-05T16:52:27.588Z,-2.15
2023-02-05T16:54:01.131Z,-2.17
2023-02-05T16:55:42.309Z,-2.23
2023-02-05T16:57:23.394Z,-2.23
2023-02-05T16:58:58.933Z,-2.28
2023-02-05T17:00:30.680Z,-2.31
2023-02-05T17:02:03.590Z,-2.32
2023-02-05T17:03:38.789Z,-2.36
2023-02-05T17:05:33.698Z,-2.42
2023-02-05T17:07:17.432Z,-2.43
2023-02-05T17:08:55.464Z,-2.46
2023-02-05T17:10:30.967Z,-2.45
2023-02-05T17:12:33.079Z,-2.51
2023-02-05T17:14:31.531Z,-2.56
2023-02-05T17:16:32.093Z,-2.59
2023-02-05T17:18:31.196Z,-2.62
2023-02-05T17:20:19.510Z,-2.62
2023-02-05T17:22:14.076Z,-2.69
2023-02-05T17:23:50.264Z,-2.69
2023-02-05T17:25:22.942Z,-2.72
2023-02-05T17:26:54.873Z,-2.75
2023-02-05T17:28:28.002Z,-2.78
2023-02-05T17:30:00.468Z,-2.79
2023-02-05T17:31:37.536Z,-2.81
2023-02-05T17:33:10.258Z,-2.80
2023-02-05T17:34:41.976Z,-2.84
2023-02-05T17:36:16.641Z,-2.86
2023-02-05T17:37:48.843Z,-2.86
2023-02-05T17:39:20.610Z,-2.88
2023-02-05T17:41:12.474Z,-2.89
2023-02-05T17:42:46.293Z,-2.91
2023-02-05T17:44:18.200Z,-2.94
2023-02-05T17:45:50.257Z,-2.93
2023-02-05T17:47:21.968Z,-2.94
2023-02-05T17:48:53.836Z,-2.98
2023-02-05T17:50:25.644Z,-3.00
2023-02-05T17:51:57.426Z,-3.02
2023-02-05T17:53:29.191Z,-3.06
2023-02-05T17:55:01.299Z,-3.10
2023-02-05T17:56:33.016Z,-3.13
2023-02-05T17:58:04.826Z,-3.18
2023-02-05T17:59:36.550Z,-3.21
2023-02-05T18:01:11.852Z,-3.28
2023-02-05T18:02:43.619Z,-3.32
2023-02-05T18:04:18.652Z,-3.38
2023-02-05T18:05:50.552Z,-3.44
2023-02-05T18:07:36.667Z,-3.52
2023-02-05T18:09:09.422Z,-3.54
2023-02-05T18:10:41.424Z,-3.62
2023-02-05T18:12:13.214Z,-3.67
2023-02-05T18:13:44.892Z,-3.74
2023-02-05T18:15:16.759Z,-3.79
2023-02-05T18:16:48.531Z,-3.85
2023-02-05T18:18:20.587Z,-3.88
2023-02-05T18:19:55.044Z,-3.92
2023-02-05T18:21:26.835Z,-3.92
2023-02-05T18:22:58.701Z,-3.92
2023-02-05T18:24:30.454Z,-3.94
2023-02-05T18:26:05.367Z,-3.93
2023-02-05T18:27:37.174Z,-3.92
2023-02-05T18:29:09.148Z,-3.91
2023-02-05T18:30:40.985Z,-3.88
2023-02-05T18:32:12.782Z,-3.85
2023-02-05T18:33:44.715Z,-3.81
2023-02-05T18:35:16.513Z,-3.79
2023-02-05T18:36:48.192Z,-3.77
2023-02-05T18:38:21.579Z,-3.75
2023-02-05T18:39:53.336Z,-3.74
2023-02-05T18:41:26.435Z,-3.72
2023-02-05T18:42:58.228Z,-3.70
2023-02-05T18:44:29.928Z,-3.70
2023-02-05T18:46:10.415Z,-3.68
2023-02-05T18:47:42.166Z,-3.67
2023-02-05T18:49:13.901Z,-3.66
2023-02-05T18:50:45.607Z,-3.66
2023-02-05T18:52:18.554Z,-3.66
2023-02-05T18:53:50.416Z,-3.67
2023-02-05T18:55:22.207Z,-3.68
2023-02-05T18:56:54.967Z,-3.69
2023-02-05T18:58:27.012Z,-3.73
2023-02-05T18:59:58.765Z,-3.75
2023-02-05T19:01:32.467Z,-3.78
2023-02-05T19:03:04.503Z,-3.84
2023-02-05T19:04:36.311Z,-3.88
2023-02-05T19:06:10.197Z,-3.95
2023-02-05T19:07:44.897Z,-4.00
2023-02-05T19:09:16.743Z,-4.07
2023-02-05T19:10:48.555Z,-4.13
2023-02-05T19:12:20.399Z,-4.19
2023-02-05T19:14:01.532Z,-4.30
2023-02-05T19:15:34.846Z,-4.35
2023-02-05T19:17:07.058Z,-4.40
2023-02-05T19:18:44.038Z,-4.48
2023-02-05T19:20:16.287Z,-4.53
2023-02-05T19:21:54.741Z,-4.59
2023-02-05T19:23:28.867Z,-4.64
2023-02-05T19:25:00.627Z,-4.69
2023-02-05T19:26:34.538Z,-4.73
2023-02-05T19:28:06.278Z,-4.78
2023-02-05T19:29:40.148Z,-4.80
2023-02-05T19:31:15.144Z,-4.81
2023-02-05T19:32:46.966Z,-4.85
2023-02-05T19:34:18.888Z,-4.86
2023-02-05T19:35:51.777Z,-4.88
2023-02-05T19:37:23.601Z,-4.90
2023-02-05T19:38:55.434Z,-4.91
2023-02-05T19:40:27.213Z,-4.94
2023-02-05T19:41:58.992Z,-4.96
2023-02-05T19:43:30.702Z,-4.98
2023-02-05T19:45:02.684Z,-5.01
2023-02-05T19:46:42.107Z,-5.06
2023-02-05T19:48:15.178Z,-5.08
2023-02-05T19:49:46.902Z,-5.11
2023-02-05T19:51:19.137Z,-5.15
2023-02-05T19:52:52.565Z,-5.19
2023-02-05T19:54:24.370Z,-5.24
2023-02-05T19:56:01.674Z,-5.28
2023-02-05T19:57:34.185Z,-5.29
2023-02-05T19:59:06.774Z,-5.31
2023-02-05T20:00:38.693Z,-5.34
2023-02-05T20:02:16.277Z,-5.36
2023-02-05T20:03:50.694Z,-5.38
2023-02-05T20:05:23.536Z,-5.39
2023-02-05T20:06:58.316Z,-5.41
2023-02-05T20:08:30.121Z,-5.42
2023-02-05T20:10:01.942Z,-5.44
2023-02-05T20:11:33.740Z,-5.44
2023-02-05T20:13:05.527Z,-5.49
2023-02-05T20:14:37.581Z,-5.50
2023-02-05T20:16:21.307Z,-5.54
2023-02-05T20:17:53.239Z,-5.56
2023-02-05T20:19:24.993Z,-5.57
2023-02-05T20:20:57.476Z,-5.60
2023-02-05T20:22:29.222Z,-5.64
2023-02-05T20:24:01.021Z,-5.67
2023-02-05T20:25:33.145Z,-5.70
2023-02-05T20:27:04.894Z,-5.72
2023-02-05T20:28:59.593Z,-5.74
2023-02-05T20:30:49.918Z,-5.75
2023-02-05T20:32:21.680Z,-5.80
2023-02-05T20:33:53.401Z,-5.82
2023-02-05T20:35:25.469Z,-5.86
2023-02-05T20:37:04.774Z,-5.90
2023-02-05T20:38:37.032Z,-5.90
2023-02-05T20:40:09.433Z,-5.93
2023-02-05T20:41:41.216Z,-5.97
2023-02-05T20:43:13.013Z,-5.99
2023-02-05T20:44:44.763Z,-6.01
2023-02-05T20:46:16.778Z,-6.03
2023-02-05T20:47:48.538Z,-6.05
2023-02-05T20:49:20.926Z,-6.05
2023-02-05T20:50:52.678Z,-6.06
2023-02-05T20:52:24.397Z,-6.07
2023-02-05T20:53:57.833Z,-6.08
2023-02-05T20:55:29.978Z,-6.05
2023-02-05T20:57:01.932Z,-6.06
2023-02-05T20:58:34.268Z,-6.04
2023-02-05T21:00:06.635Z,-6.04
2023-02-05T21:01:39.678Z,-6.03
2023-02-05T21:03:11.429Z,-6.01
2023-02-05T21:04:43.383Z,-6.00
2023-02-05T21:06:16.331Z,-5.98
2023-02-05T21:07:48.159Z,-5.95
2023-02-05T21:09:20.344Z,-5.95
2023-02-05T21:10:52.065Z,-5.95
2023-02-05T21:12:28.073Z,-5.94